sensor_id;sensor_type;location;lat;lon;timestamp;P1;durP1;ratioP1;P2;durP2;ratioP2
61356;SDS011;47227;46.752;23.576;2023-11-21T00:01:24;56.50;;;30.50;;
61356;SDS011;47227;46.752;23.576;2023-11-21T00:03:53;53.90;;;29.80;;
61356;SDS011;47227;46.752;23.576;2023-11-21T00:06:23;49.10;;;26.50;;
61356;SDS011;47227;46.752;23.576;2023-11-21T00:08:51;44.00;;;24.30;;
61356;SDS011;47227;46.752;23.576;2023-11-21T00:11:20;29.40;;;16.50;;
61356;SDS011;47227;46.752;23.576;2023-11-21T00:13:49;38.00;;;21.40;;
61356;SDS011;47227;46.752;23.576;2023-11-21T00:16:18;25.60;;;15.60;;
61356;SDS011;47227;46.752;23.576;2023-11-21T00:18:46;33.50;;;19.80;;
61356;SDS011;47227;46.752;23.576;2023-11-21T00:21:15;35.40;;;20.30;;
61356;SDS011;47227;46.752;23.576;2023-11-21T00:23:43;29.40;;;17.90;;
61356;SDS011;47227;46.752;23.576;2023-11-21T00:26:12;31.30;;;19.80;;
61356;SDS011;47227;46.752;23.576;2023-11-21T00:28:42;29.50;;;17.40;;
61356;SDS011;47227;46.752;23.576;2023-11-21T00:31:11;28.90;;;18.40;;
61356;SDS011;47227;46.752;23.576;2023-11-21T00:33:39;37.30;;;22.20;;
61356;SDS011;47227;46.752;23.576;2023-11-21T00:36:08;33.60;;;20.10;;
61356;SDS011;47227;46.752;23.576;2023-11-21T00:38:37;37.10;;;20.80;;
61356;SDS011;47227;46.752;23.576;2023-11-21T00:41:09;29.80;;;20.30;;
61356;SDS011;47227;46.752;23.576;2023-11-21T00:43:37;29.80;;;17.70;;
61356;SDS011;47227;46.752;23.576;2023-11-21T00:46:06;29.00;;;18.10;;
61356;SDS011;47227;46.752;23.576;2023-11-21T00:48:36;28.00;;;17.60;;
61356;SDS011;47227;46.752;23.576;2023-11-21T00:51:04;31.80;;;19.60;;
61356;SDS011;47227;46.752;23.576;2023-11-21T00:53:34;35.30;;;21.70;;
61356;SDS011;47227;46.752;23.576;2023-11-21T00:56:02;36.80;;;22.50;;
61356;SDS011;47227;46.752;23.576;2023-11-21T00:58:31;37.70;;;20.20;;
61356;SDS011;47227;46.752;23.576;2023-11-21T01:00:59;36.10;;;21.20;;
61356;SDS011;47227;46.752;23.576;2023-11-21T01:03:27;34.30;;;20.20;;
61356;SDS011;47227;46.752;23.576;2023-11-21T01:05:56;29.30;;;18.80;;
61356;SDS011;47227;46.752;23.576;2023-11-21T01:08:24;30.20;;;17.10;;
61356;SDS011;47227;46.752;23.576;2023-11-21T01:10:53;25.50;;;17.30;;
61356;SDS011;47227;46.752;23.576;2023-11-21T01:13:22;25.00;;;17.50;;
61356;SDS011;47227;46.752;23.576;2023-11-21T01:15:50;32.40;;;17.90;;
61356;SDS011;47227;46.752;23.576;2023-11-21T01:18:20;33.10;;;19.60;;
61356;SDS011;47227;46.752;23.576;2023-11-21T01:20:49;31.30;;;17.80;;
61356;SDS011;47227;46.752;23.576;2023-11-21T01:23:17;23.10;;;15.30;;
61356;SDS011;47227;46.752;23.576;2023-11-21T01:25:46;20.60;;;12.10;;
61356;SDS011;47227;46.752;23.576;2023-11-21T01:28:14;12.80;;;9.60;;
61356;SDS011;47227;46.752;23.576;2023-11-21T01:30:42;13.80;;;9.10;;
61356;SDS011;47227;46.752;23.576;2023-11-21T01:33:13;16.60;;;11.10;;
61356;SDS011;47227;46.752;23.576;2023-11-21T01:35:44;14.20;;;10.80;;
61356;SDS011;47227;46.752;23.576;2023-11-21T01:38:14;15.00;;;11.20;;
61356;SDS011;47227;46.752;23.576;2023-11-21T01:40:43;15.90;;;11.10;;
61356;SDS011;47227;46.752;23.576;2023-11-21T01:43:12;15.80;;;11.30;;
61356;SDS011;47227;46.752;23.576;2023-11-21T01:45:41;17.40;;;11.90;;
61356;SDS011;47227;46.752;23.576;2023-11-21T01:48:09;18.80;;;13.10;;
61356;SDS011;47227;46.752;23.576;2023-11-21T01:50:38;19.00;;;12.80;;
61356;SDS011;47227;46.752;23.576;2023-11-21T01:53:06;22.10;;;13.90;;
61356;SDS011;47227;46.752;23.576;2023-11-21T01:55:35;22.30;;;14.10;;
61356;SDS011;47227;46.752;23.576;2023-11-21T01:58:03;22.20;;;13.90;;
61356;SDS011;47227;46.752;23.576;2023-11-21T02:00:32;23.00;;;14.50;;
61356;SDS011;47227;46.752;23.576;2023-11-21T02:03:01;24.70;;;14.80;;
61356;SDS011;47227;46.752;23.576;2023-11-21T02:05:31;25.10;;;16.30;;
61356;SDS011;47227;46.752;23.576;2023-11-21T02:07:59;31.20;;;17.90;;
61356;SDS011;47227;46.752;23.576;2023-11-21T02:10:29;29.40;;;18.40;;
61356;SDS011;47227;46.752;23.576;2023-11-21T02:12:59;33.80;;;19.70;;
61356;SDS011;47227;46.752;23.576;2023-11-21T02:15:31;69.80;;;19.30;;
61356;SDS011;47227;46.752;23.576;2023-11-21T02:17:59;52.70;;;20.70;;
61356;SDS011;47227;46.752;23.576;2023-11-21T02:20:29;65.60;;;20.30;;
61356;SDS011;47227;46.752;23.576;2023-11-21T02:22:58;63.60;;;16.30;;
61356;SDS011;47227;46.752;23.576;2023-11-21T02:25:29;22.80;;;14.50;;
61356;SDS011;47227;46.752;23.576;2023-11-21T02:27:59;19.60;;;13.80;;
61356;SDS011;47227;46.752;23.576;2023-11-21T02:30:30;17.10;;;11.50;;
61356;SDS011;47227;46.752;23.576;2023-11-21T02:33:02;13.60;;;10.20;;
61356;SDS011;47227;46.752;23.576;2023-11-21T02:35:31;15.20;;;11.50;;
61356;SDS011;47227;46.752;23.576;2023-11-21T02:38:00;16.90;;;12.40;;
61356;SDS011;47227;46.752;23.576;2023-11-21T02:40:29;15.50;;;11.00;;
61356;SDS011;47227;46.752;23.576;2023-11-21T02:42:58;17.50;;;11.30;;
61356;SDS011;47227;46.752;23.576;2023-11-21T02:45:27;18.60;;;13.40;;
61356;SDS011;47227;46.752;23.576;2023-11-21T02:47:56;16.50;;;11.80;;
61356;SDS011;47227;46.752;23.576;2023-11-21T02:50:27;16.40;;;12.00;;
61356;SDS011;47227;46.752;23.576;2023-11-21T02:52:55;20.00;;;12.70;;
61356;SDS011;47227;46.752;23.576;2023-11-21T02:55:26;22.90;;;13.50;;
61356;SDS011;47227;46.752;23.576;2023-11-21T02:57:55;21.20;;;13.80;;
61356;SDS011;47227;46.752;23.576;2023-11-21T03:00:27;22.40;;;13.90;;
61356;SDS011;47227;46.752;23.576;2023-11-21T03:02:56;20.10;;;13.10;;
61356;SDS011;47227;46.752;23.576;2023-11-21T03:05:27;24.00;;;15.80;;
61356;SDS011;47227;46.752;23.576;2023-11-21T03:07:57;22.00;;;14.50;;
61356;SDS011;47227;46.752;23.576;2023-11-21T03:10:26;21.20;;;15.00;;
61356;SDS011;47227;46.752;23.576;2023-11-21T03:12:56;21.10;;;13.80;;
61356;SDS011;47227;46.752;23.576;2023-11-21T03:15:25;22.20;;;13.50;;
61356;SDS011;47227;46.752;23.576;2023-11-21T03:17:54;29.50;;;15.60;;
61356;SDS011;47227;46.752;23.576;2023-11-21T03:20:24;38.30;;;17.50;;
61356;SDS011;47227;46.752;23.576;2023-11-21T03:22:53;68.20;;;18.00;;
61356;SDS011;47227;46.752;23.576;2023-11-21T03:25:22;67.60;;;20.30;;
61356;SDS011;47227;46.752;23.576;2023-11-21T03:27:52;66.20;;;20.50;;
61356;SDS011;47227;46.752;23.576;2023-11-21T03:30:21;105.80;;;19.80;;
61356;SDS011;47227;46.752;23.576;2023-11-21T03:32:50;22.60;;;12.30;;
61356;SDS011;47227;46.752;23.576;2023-11-21T03:35:18;23.70;;;14.90;;
61356;SDS011;47227;46.752;23.576;2023-11-21T03:37:49;25.90;;;15.20;;
61356;SDS011;47227;46.752;23.576;2023-11-21T03:40:17;17.00;;;11.90;;
61356;SDS011;47227;46.752;23.576;2023-11-21T03:42:46;18.10;;;11.80;;
61356;SDS011;47227;46.752;23.576;2023-11-21T03:45:15;21.10;;;10.40;;
61356;SDS011;47227;46.752;23.576;2023-11-21T03:47:43;21.80;;;13.20;;
61356;SDS011;47227;46.752;23.576;2023-11-21T03:50:12;27.00;;;15.50;;
61356;SDS011;47227;46.752;23.576;2023-11-21T03:52:40;24.90;;;14.80;;
61356;SDS011;47227;46.752;23.576;2023-11-21T03:55:09;22.80;;;14.60;;
61356;SDS011;47227;46.752;23.576;2023-11-21T03:57:40;18.60;;;12.40;;
61356;SDS011;47227;46.752;23.576;2023-11-21T04:00:10;19.70;;;12.00;;
61356;SDS011;47227;46.752;23.576;2023-11-21T04:02:38;20.90;;;12.40;;
61356;SDS011;47227;46.752;23.576;2023-11-21T04:05:08;20.20;;;13.50;;
61356;SDS011;47227;46.752;23.576;2023-11-21T04:07:37;18.70;;;13.40;;
61356;SDS011;47227;46.752;23.576;2023-11-21T04:10:07;15.20;;;10.70;;
61356;SDS011;47227;46.752;23.576;2023-11-21T04:12:41;14.10;;;10.30;;
61356;SDS011;47227;46.752;23.576;2023-11-21T04:15:10;18.80;;;12.20;;
61356;SDS011;47227;46.752;23.576;2023-11-21T04:17:38;17.10;;;11.90;;
61356;SDS011;47227;46.752;23.576;2023-11-21T04:20:08;14.50;;;10.30;;
61356;SDS011;47227;46.752;23.576;2023-11-21T04:22:39;14.90;;;9.80;;
61356;SDS011;47227;46.752;23.576;2023-11-21T04:25:15;24.90;;;14.70;;
61356;SDS011;47227;46.752;23.576;2023-11-21T04:27:44;27.90;;;16.00;;
61356;SDS011;47227;46.752;23.576;2023-11-21T04:30:13;29.50;;;16.40;;
61356;SDS011;47227;46.752;23.576;2023-11-21T04:32:42;28.10;;;15.50;;
61356;SDS011;47227;46.752;23.576;2023-11-21T04:35:11;36.10;;;18.50;;
61356;SDS011;47227;46.752;23.576;2023-11-21T04:37:40;30.60;;;17.70;;
61356;SDS011;47227;46.752;23.576;2023-11-21T04:40:09;27.00;;;17.20;;
61356;SDS011;47227;46.752;23.576;2023-11-21T04:42:38;31.10;;;18.40;;
61356;SDS011;47227;46.752;23.576;2023-11-21T04:45:06;26.90;;;16.40;;
61356;SDS011;47227;46.752;23.576;2023-11-21T04:47:40;29.30;;;17.40;;
61356;SDS011;47227;46.752;23.576;2023-11-21T04:50:09;26.40;;;16.70;;
61356;SDS011;47227;46.752;23.576;2023-11-21T04:52:38;27.10;;;16.50;;
61356;SDS011;47227;46.752;23.576;2023-11-21T04:55:07;30.00;;;17.80;;
61356;SDS011;47227;46.752;23.576;2023-11-21T04:57:39;32.10;;;19.10;;
61356;SDS011;47227;46.752;23.576;2023-11-21T05:00:10;45.20;;;21.90;;
61356;SDS011;47227;46.752;23.576;2023-11-21T05:02:40;79.90;;;23.20;;
61356;SDS011;47227;46.752;23.576;2023-11-21T05:05:10;99.90;;;23.40;;
61356;SDS011;47227;46.752;23.576;2023-11-21T05:07:41;56.70;;;21.60;;
61356;SDS011;47227;46.752;23.576;2023-11-21T05:10:11;106.60;;;23.60;;
61356;SDS011;47227;46.752;23.576;2023-11-21T05:12:41;166.10;;;24.30;;
61356;SDS011;47227;46.752;23.576;2023-11-21T05:15:10;93.60;;;24.50;;
61356;SDS011;47227;46.752;23.576;2023-11-21T05:17:43;71.60;;;23.60;;
61356;SDS011;47227;46.752;23.576;2023-11-21T05:20:13;40.40;;;22.50;;
61356;SDS011;47227;46.752;23.576;2023-11-21T05:22:49;40.60;;;22.70;;
61356;SDS011;47227;46.752;23.576;2023-11-21T05:25:18;45.40;;;23.10;;
61356;SDS011;47227;46.752;23.576;2023-11-21T05:27:47;77.80;;;22.60;;
61356;SDS011;47227;46.752;23.576;2023-11-21T05:30:15;41.40;;;22.40;;
61356;SDS011;47227;46.752;23.576;2023-11-21T05:32:44;54.10;;;18.50;;
61356;SDS011;47227;46.752;23.576;2023-11-21T05:35:15;47.40;;;16.70;;
61356;SDS011;47227;46.752;23.576;2023-11-21T05:37:45;33.30;;;18.20;;
61356;SDS011;47227;46.752;23.576;2023-11-21T05:40:15;42.20;;;18.40;;
61356;SDS011;47227;46.752;23.576;2023-11-21T05:42:44;62.80;;;15.50;;
61356;SDS011;47227;46.752;23.576;2023-11-21T05:45:13;30.20;;;15.70;;
61356;SDS011;47227;46.752;23.576;2023-11-21T05:47:43;37.00;;;15.80;;
61356;SDS011;47227;46.752;23.576;2023-11-21T05:50:15;55.60;;;16.10;;
61356;SDS011;47227;46.752;23.576;2023-11-21T05:52:45;43.70;;;16.50;;
61356;SDS011;47227;46.752;23.576;2023-11-21T05:55:15;26.90;;;16.60;;
61356;SDS011;47227;46.752;23.576;2023-11-21T05:57:44;40.20;;;15.70;;
61356;SDS011;47227;46.752;23.576;2023-11-21T06:00:13;32.00;;;15.90;;
61356;SDS011;47227;46.752;23.576;2023-11-21T06:05:20;40.30;;;17.20;;
61356;SDS011;47227;46.752;23.576;2023-11-21T06:07:51;27.60;;;16.90;;
61356;SDS011;47227;46.752;23.576;2023-11-21T06:10:22;30.50;;;16.60;;
61356;SDS011;47227;46.752;23.576;2023-11-21T06:12:52;41.20;;;16.20;;
61356;SDS011;47227;46.752;23.576;2023-11-21T06:15:21;48.30;;;15.60;;
61356;SDS011;47227;46.752;23.576;2023-11-21T06:17:51;32.40;;;14.90;;
61356;SDS011;47227;46.752;23.576;2023-11-21T06:20:21;49.00;;;15.00;;
61356;SDS011;47227;46.752;23.576;2023-11-21T06:22:51;36.30;;;14.60;;
61356;SDS011;47227;46.752;23.576;2023-11-21T06:25:20;53.00;;;16.40;;
61356;SDS011;47227;46.752;23.576;2023-11-21T06:27:49;46.60;;;16.10;;
61356;SDS011;47227;46.752;23.576;2023-11-21T06:30:20;28.60;;;16.70;;
61356;SDS011;47227;46.752;23.576;2023-11-21T06:32:49;74.10;;;18.10;;
61356;SDS011;47227;46.752;23.576;2023-11-21T06:35:19;53.20;;;16.80;;
61356;SDS011;47227;46.752;23.576;2023-11-21T06:37:48;43.40;;;16.50;;
61356;SDS011;47227;46.752;23.576;2023-11-21T06:40:18;58.10;;;16.50;;
61356;SDS011;47227;46.752;23.576;2023-11-21T06:42:48;33.40;;;16.20;;
61356;SDS011;47227;46.752;23.576;2023-11-21T06:45:19;40.00;;;16.60;;
61356;SDS011;47227;46.752;23.576;2023-11-21T06:47:48;39.00;;;18.50;;
61356;SDS011;47227;46.752;23.576;2023-11-21T06:50:18;57.90;;;19.30;;
61356;SDS011;47227;46.752;23.576;2023-11-21T06:52:46;36.70;;;18.20;;
61356;SDS011;47227;46.752;23.576;2023-11-21T06:55:15;37.70;;;18.70;;
61356;SDS011;47227;46.752;23.576;2023-11-21T06:57:44;61.50;;;18.00;;
61356;SDS011;47227;46.752;23.576;2023-11-21T07:00:13;84.50;;;17.80;;
61356;SDS011;47227;46.752;23.576;2023-11-21T07:02:48;37.80;;;18.80;;
61356;SDS011;47227;46.752;23.576;2023-11-21T07:05:17;55.30;;;16.40;;
61356;SDS011;47227;46.752;23.576;2023-11-21T07:07:49;65.40;;;16.20;;
61356;SDS011;47227;46.752;23.576;2023-11-21T07:10:18;43.90;;;14.80;;
61356;SDS011;47227;46.752;23.576;2023-11-21T07:12:47;27.60;;;14.90;;
61356;SDS011;47227;46.752;23.576;2023-11-21T07:15:16;34.00;;;15.10;;
61356;SDS011;47227;46.752;23.576;2023-11-21T07:17:44;48.80;;;14.90;;
61356;SDS011;47227;46.752;23.576;2023-11-21T07:20:14;39.90;;;13.50;;
61356;SDS011;47227;46.752;23.576;2023-11-21T07:22:45;60.20;;;12.70;;
61356;SDS011;47227;46.752;23.576;2023-11-21T07:25:14;42.30;;;12.30;;
61356;SDS011;47227;46.752;23.576;2023-11-21T07:27:43;83.70;;;14.70;;
61356;SDS011;47227;46.752;23.576;2023-11-21T07:30:11;27.60;;;13.10;;
61356;SDS011;47227;46.752;23.576;2023-11-21T07:32:41;35.30;;;11.90;;
61356;SDS011;47227;46.752;23.576;2023-11-21T07:35:10;20.30;;;12.70;;
61356;SDS011;47227;46.752;23.576;2023-11-21T07:37:39;25.60;;;11.80;;
61356;SDS011;47227;46.752;23.576;2023-11-21T07:40:07;39.30;;;24.00;;
61356;SDS011;47227;46.752;23.576;2023-11-21T07:42:37;26.30;;;14.00;;
61356;SDS011;47227;46.752;23.576;2023-11-21T07:45:06;25.60;;;14.60;;
61356;SDS011;47227;46.752;23.576;2023-11-21T07:47:35;26.20;;;14.10;;
61356;SDS011;47227;46.752;23.576;2023-11-21T07:50:04;25.00;;;13.30;;
61356;SDS011;47227;46.752;23.576;2023-11-21T07:52:35;29.40;;;16.90;;
61356;SDS011;47227;46.752;23.576;2023-11-21T07:55:04;29.40;;;18.70;;
61356;SDS011;47227;46.752;23.576;2023-11-21T07:57:33;23.80;;;14.40;;
61356;SDS011;47227;46.752;23.576;2023-11-21T08:00:01;18.40;;;12.10;;
61356;SDS011;47227;46.752;23.576;2023-11-21T08:02:39;20.10;;;11.40;;
61356;SDS011;47227;46.752;23.576;2023-11-21T08:05:11;16.20;;;11.60;;
61356;SDS011;47227;46.752;23.576;2023-11-21T08:07:51;34.50;;;12.00;;
61356;SDS011;47227;46.752;23.576;2023-11-21T08:10:20;25.40;;;12.20;;
61356;SDS011;47227;46.752;23.576;2023-11-21T08:12:49;27.10;;;12.50;;
61356;SDS011;47227;46.752;23.576;2023-11-21T08:15:19;19.00;;;11.80;;
61356;SDS011;47227;46.752;23.576;2023-11-21T08:17:48;21.70;;;11.80;;
61356;SDS011;47227;46.752;23.576;2023-11-21T08:20:16;25.00;;;12.50;;
61356;SDS011;47227;46.752;23.576;2023-11-21T08:22:46;30.20;;;12.30;;
61356;SDS011;47227;46.752;23.576;2023-11-21T08:25:16;29.30;;;13.20;;
61356;SDS011;47227;46.752;23.576;2023-11-21T08:27:48;20.50;;;12.70;;
61356;SDS011;47227;46.752;23.576;2023-11-21T08:30:17;22.30;;;13.70;;
61356;SDS011;47227;46.752;23.576;2023-11-21T08:32:47;20.50;;;12.00;;
61356;SDS011;47227;46.752;23.576;2023-11-21T08:35:16;24.90;;;13.60;;
61356;SDS011;47227;46.752;23.576;2023-11-21T08:37:45;31.30;;;12.20;;
61356;SDS011;47227;46.752;23.576;2023-11-21T08:40:13;22.90;;;13.50;;
61356;SDS011;47227;46.752;23.576;2023-11-21T08:42:45;27.20;;;13.80;;
61356;SDS011;47227;46.752;23.576;2023-11-21T08:45:15;37.20;;;13.30;;
61356;SDS011;47227;46.752;23.576;2023-11-21T08:47:45;26.00;;;14.60;;
61356;SDS011;47227;46.752;23.576;2023-11-21T08:50:14;30.80;;;15.60;;
61356;SDS011;47227;46.752;23.576;2023-11-21T08:52:43;44.10;;;15.80;;
61356;SDS011;47227;46.752;23.576;2023-11-21T08:55:14;41.60;;;17.20;;
61356;SDS011;47227;46.752;23.576;2023-11-21T08:57:43;56.50;;;16.20;;
61356;SDS011;47227;46.752;23.576;2023-11-21T09:00:13;35.50;;;16.10;;
61356;SDS011;47227;46.752;23.576;2023-11-21T09:02:45;35.90;;;16.30;;
61356;SDS011;47227;46.752;23.576;2023-11-21T09:05:14;42.60;;;15.00;;
61356;SDS011;47227;46.752;23.576;2023-11-21T09:07:44;44.20;;;15.30;;
61356;SDS011;47227;46.752;23.576;2023-11-21T09:10:14;28.70;;;15.40;;
61356;SDS011;47227;46.752;23.576;2023-11-21T09:12:43;42.80;;;15.50;;
61356;SDS011;47227;46.752;23.576;2023-11-21T09:15:11;31.20;;;16.20;;
61356;SDS011;47227;46.752;23.576;2023-11-21T09:17:39;30.20;;;16.30;;
61356;SDS011;47227;46.752;23.576;2023-11-21T09:20:09;31.70;;;17.80;;
61356;SDS011;47227;46.752;23.576;2023-11-21T09:22:39;34.40;;;15.10;;
61356;SDS011;47227;46.752;23.576;2023-11-21T09:25:08;32.50;;;15.60;;
61356;SDS011;47227;46.752;23.576;2023-11-21T09:27:37;34.00;;;16.50;;
61356;SDS011;47227;46.752;23.576;2023-11-21T09:30:06;51.40;;;15.50;;
61356;SDS011;47227;46.752;23.576;2023-11-21T09:32:39;26.00;;;15.50;;
61356;SDS011;47227;46.752;23.576;2023-11-21T09:35:09;27.20;;;15.30;;
61356;SDS011;47227;46.752;23.576;2023-11-21T09:37:39;23.80;;;15.50;;
61356;SDS011;47227;46.752;23.576;2023-11-21T09:40:10;41.70;;;15.20;;
61356;SDS011;47227;46.752;23.576;2023-11-21T09:48:03;23.10;;;14.60;;
61356;SDS011;47227;46.752;23.576;2023-11-21T09:50:33;30.20;;;14.90;;
61356;SDS011;47227;46.752;23.576;2023-11-21T09:55:52;30.00;;;19.30;;
61356;SDS011;47227;46.752;23.576;2023-11-21T09:58:21;29.30;;;17.40;;
61356;SDS011;47227;46.752;23.576;2023-11-21T10:00:52;38.30;;;18.10;;
61356;SDS011;47227;46.752;23.576;2023-11-21T10:03:26;33.60;;;17.10;;
61356;SDS011;47227;46.752;23.576;2023-11-21T10:05:56;27.90;;;18.20;;
61356;SDS011;47227;46.752;23.576;2023-11-21T10:08:27;28.60;;;16.50;;
61356;SDS011;47227;46.752;23.576;2023-11-21T10:11:13;33.30;;;18.20;;
61356;SDS011;47227;46.752;23.576;2023-11-21T10:13:44;33.20;;;18.60;;
61356;SDS011;47227;46.752;23.576;2023-11-21T10:16:14;36.70;;;18.40;;
61356;SDS011;47227;46.752;23.576;2023-11-21T10:18:49;51.00;;;20.20;;
61356;SDS011;47227;46.752;23.576;2023-11-21T10:21:39;41.20;;;20.30;;
61356;SDS011;47227;46.752;23.576;2023-11-21T10:24:08;38.50;;;20.30;;
61356;SDS011;47227;46.752;23.576;2023-11-21T10:26:37;34.30;;;18.50;;
61356;SDS011;47227;46.752;23.576;2023-11-21T10:29:20;28.20;;;17.10;;
61356;SDS011;47227;46.752;23.576;2023-11-21T10:31:51;34.20;;;18.40;;
61356;SDS011;47227;46.752;23.576;2023-11-21T10:34:23;26.00;;;15.90;;
61356;SDS011;47227;46.752;23.576;2023-11-21T10:36:52;26.20;;;16.30;;
61356;SDS011;47227;46.752;23.576;2023-11-21T10:39:20;39.30;;;17.50;;
61356;SDS011;47227;46.752;23.576;2023-11-21T10:41:52;28.10;;;16.30;;
61356;SDS011;47227;46.752;23.576;2023-11-21T10:44:23;27.80;;;15.70;;
61356;SDS011;47227;46.752;23.576;2023-11-21T10:46:53;26.00;;;16.20;;
61356;SDS011;47227;46.752;23.576;2023-11-21T10:49:27;29.60;;;16.00;;
61356;SDS011;47227;46.752;23.576;2023-11-21T10:51:56;28.90;;;16.50;;
61356;SDS011;47227;46.752;23.576;2023-11-21T10:54:26;28.90;;;17.30;;
61356;SDS011;47227;46.752;23.576;2023-11-21T10:56:58;29.30;;;16.70;;
61356;SDS011;47227;46.752;23.576;2023-11-21T10:59:29;27.30;;;16.30;;
61356;SDS011;47227;46.752;23.576;2023-11-21T11:02:02;26.80;;;17.00;;
61356;SDS011;47227;46.752;23.576;2023-11-21T11:04:49;26.00;;;16.80;;
61356;SDS011;47227;46.752;23.576;2023-11-21T11:07:18;24.90;;;14.70;;
61356;SDS011;47227;46.752;23.576;2023-11-21T11:09:50;23.30;;;15.10;;
61356;SDS011;47227;46.752;23.576;2023-11-21T11:12:20;31.90;;;18.30;;
61356;SDS011;47227;46.752;23.576;2023-11-21T11:14:52;30.60;;;19.30;;
61356;SDS011;47227;46.752;23.576;2023-11-21T11:17:20;37.00;;;19.40;;
61356;SDS011;47227;46.752;23.576;2023-11-21T11:19:50;45.00;;;20.90;;
61356;SDS011;47227;46.752;23.576;2023-11-21T11:22:24;36.80;;;20.50;;
61356;SDS011;47227;46.752;23.576;2023-11-21T11:36:16;48.30;;;22.60;;
61356;SDS011;47227;46.752;23.576;2023-11-21T11:38:53;49.70;;;23.50;;
61356;SDS011;47227;46.752;23.576;2023-11-21T11:41:26;43.40;;;21.50;;
61356;SDS011;47227;46.752;23.576;2023-11-21T11:44:00;35.70;;;21.50;;
61356;SDS011;47227;46.752;23.576;2023-11-21T11:46:42;43.40;;;20.50;;
61356;SDS011;47227;46.752;23.576;2023-11-21T11:49:24;34.30;;;20.50;;
61356;SDS011;47227;46.752;23.576;2023-11-21T11:52:40;36.10;;;21.60;;
61356;SDS011;47227;46.752;23.576;2023-11-21T11:55:02;40.70;;;21.30;;
61356;SDS011;47227;46.752;23.576;2023-11-21T11:57:33;28.40;;;18.80;;
61356;SDS011;47227;46.752;23.576;2023-11-21T12:00:11;32.30;;;19.20;;
61356;SDS011;47227;46.752;23.576;2023-11-21T12:02:45;33.60;;;19.20;;
61356;SDS011;47227;46.752;23.576;2023-11-21T12:05:19;30.80;;;18.60;;
61356;SDS011;47227;46.752;23.576;2023-11-21T12:10:25;30.50;;;19.30;;
61356;SDS011;47227;46.752;23.576;2023-11-21T12:13:03;32.40;;;20.20;;
61356;SDS011;47227;46.752;23.576;2023-11-21T12:15:38;34.00;;;20.10;;
61356;SDS011;47227;46.752;23.576;2023-11-21T12:18:10;37.90;;;20.60;;
61356;SDS011;47227;46.752;23.576;2023-11-21T12:20:39;28.50;;;17.90;;
61356;SDS011;47227;46.752;23.576;2023-11-21T12:23:09;25.70;;;16.80;;
61356;SDS011;47227;46.752;23.576;2023-11-21T12:25:40;29.50;;;18.70;;
61356;SDS011;47227;46.752;23.576;2023-11-21T12:28:11;27.30;;;18.10;;
61356;SDS011;47227;46.752;23.576;2023-11-21T12:30:40;32.80;;;19.20;;
61356;SDS011;47227;46.752;23.576;2023-11-21T12:33:09;26.70;;;17.70;;
61356;SDS011;47227;46.752;23.576;2023-11-21T12:35:38;26.50;;;17.30;;
61356;SDS011;47227;46.752;23.576;2023-11-21T12:38:07;29.20;;;18.10;;
61356;SDS011;47227;46.752;23.576;2023-11-21T12:40:37;24.50;;;16.80;;
61356;SDS011;47227;46.752;23.576;2023-11-21T12:43:06;25.70;;;17.90;;
61356;SDS011;47227;46.752;23.576;2023-11-21T12:45:36;26.50;;;17.60;;
61356;SDS011;47227;46.752;23.576;2023-11-21T12:48:07;32.50;;;20.80;;
61356;SDS011;47227;46.752;23.576;2023-11-21T12:50:37;29.80;;;19.70;;
61356;SDS011;47227;46.752;23.576;2023-11-21T12:53:07;41.90;;;23.20;;
61356;SDS011;47227;46.752;23.576;2023-11-21T12:55:40;35.50;;;21.40;;
61356;SDS011;47227;46.752;23.576;2023-11-21T12:58:11;35.80;;;21.50;;
61356;SDS011;47227;46.752;23.576;2023-11-21T13:00:45;36.50;;;22.20;;
61356;SDS011;47227;46.752;23.576;2023-11-21T13:03:17;38.50;;;23.00;;
61356;SDS011;47227;46.752;23.576;2023-11-21T13:05:48;30.40;;;20.60;;
61356;SDS011;47227;46.752;23.576;2023-11-21T13:08:22;29.40;;;18.00;;
61356;SDS011;47227;46.752;23.576;2023-11-21T13:10:53;27.60;;;18.40;;
61356;SDS011;47227;46.752;23.576;2023-11-21T13:13:28;32.00;;;20.70;;
61356;SDS011;47227;46.752;23.576;2023-11-21T13:15:59;35.70;;;21.80;;
61356;SDS011;47227;46.752;23.576;2023-11-21T13:18:29;31.80;;;20.30;;
61356;SDS011;47227;46.752;23.576;2023-11-21T13:21:02;32.70;;;21.10;;
61356;SDS011;47227;46.752;23.576;2023-11-21T13:23:39;42.10;;;21.50;;
61356;SDS011;47227;46.752;23.576;2023-11-21T13:26:09;37.90;;;23.20;;
61356;SDS011;47227;46.752;23.576;2023-11-21T13:28:38;35.00;;;21.50;;
61356;SDS011;47227;46.752;23.576;2023-11-21T13:31:09;38.40;;;20.90;;
61356;SDS011;47227;46.752;23.576;2023-11-21T13:33:49;38.70;;;20.90;;
61356;SDS011;47227;46.752;23.576;2023-11-21T13:36:27;39.00;;;20.20;;
61356;SDS011;47227;46.752;23.576;2023-11-21T13:38:59;49.20;;;20.90;;
61356;SDS011;47227;46.752;23.576;2023-11-21T13:41:33;34.70;;;19.70;;
61356;SDS011;47227;46.752;23.576;2023-11-21T13:44:02;42.90;;;20.70;;
61356;SDS011;47227;46.752;23.576;2023-11-21T13:46:45;39.10;;;19.60;;
61356;SDS011;47227;46.752;23.576;2023-11-21T13:49:14;40.50;;;21.00;;
61356;SDS011;47227;46.752;23.576;2023-11-21T13:51:44;59.20;;;23.40;;
61356;SDS011;47227;46.752;23.576;2023-11-21T13:54:16;60.50;;;23.40;;
61356;SDS011;47227;46.752;23.576;2023-11-21T13:56:45;55.60;;;23.40;;
61356;SDS011;47227;46.752;23.576;2023-11-21T13:59:14;56.60;;;24.60;;
61356;SDS011;47227;46.752;23.576;2023-11-21T14:01:51;68.10;;;25.50;;
61356;SDS011;47227;46.752;23.576;2023-11-21T14:04:25;49.60;;;26.80;;
61356;SDS011;47227;46.752;23.576;2023-11-21T14:07:13;43.50;;;26.70;;
61356;SDS011;47227;46.752;23.576;2023-11-21T14:10:01;58.70;;;25.70;;
61356;SDS011;47227;46.752;23.576;2023-11-21T14:12:32;261.00;;;29.40;;
61356;SDS011;47227;46.752;23.576;2023-11-21T14:15:07;102.00;;;26.80;;
61356;SDS011;47227;46.752;23.576;2023-11-21T14:17:38;86.70;;;27.10;;
61356;SDS011;47227;46.752;23.576;2023-11-21T14:20:09;111.00;;;27.90;;
61356;SDS011;47227;46.752;23.576;2023-11-21T14:22:44;83.70;;;25.30;;
61356;SDS011;47227;46.752;23.576;2023-11-21T14:25:15;108.00;;;24.60;;
61356;SDS011;47227;46.752;23.576;2023-11-21T14:27:45;69.60;;;21.80;;
61356;SDS011;47227;46.752;23.576;2023-11-21T14:30:14;98.50;;;23.60;;
61356;SDS011;47227;46.752;23.576;2023-11-21T14:32:43;47.30;;;22.30;;
61356;SDS011;47227;46.752;23.576;2023-11-21T14:35:11;74.90;;;21.50;;
61356;SDS011;47227;46.752;23.576;2023-11-21T14:37:40;78.10;;;20.90;;
61356;SDS011;47227;46.752;23.576;2023-11-21T14:40:08;117.20;;;20.10;;
61356;SDS011;47227;46.752;23.576;2023-11-21T14:42:38;39.30;;;19.20;;
61356;SDS011;47227;46.752;23.576;2023-11-21T14:45:08;68.50;;;18.80;;
61356;SDS011;47227;46.752;23.576;2023-11-21T14:47:40;120.20;;;20.20;;
61356;SDS011;47227;46.752;23.576;2023-11-21T14:50:14;49.80;;;17.20;;
61356;SDS011;47227;46.752;23.576;2023-11-21T14:53:11;41.00;;;17.40;;